Time;durP1;ratioP1;P1;durP2;ratioP2;P2;SDS_P1;SDS_P2;PMS_P1;PMS_P2;Temp;Humidity;BMP_temperature;BMP_pressure;BME280_temperature;BME280_humidity;BME280_pressure;Samples;Min_cycle;Max_cycle;Signal;HPM_P1;HPM_P2
2022/08/16 00:00:33;;;;;;;17.98;15.18;;;19.10;99.90;;;;;;5028489;28;20113;-34
2022/08/16 00:02:59;;;;;;;16.95;15.35;;;19.10;99.90;;;;;;5027590;28;20323;-34
2022/08/16 00:05:26;;;;;;;15.13;13.80;;;19.10;99.90;;;;;;5025011;28;20033;-34
2022/08/16 00:07:53;;;;;;;15.95;14.27;;;19.00;99.90;;;;;;5026892;28;20476;-34
2022/08/16 00:10:20;;;;;;;16.70;14.95;;;19.10;99.90;;;;;;5027727;28;20057;-34
2022/08/16 00:12:46;;;;;;;17.15;15.52;;;19.00;99.90;;;;;;5029332;28;20457;-34
2022/08/16 00:15:20;;;;;;;17.10;15.48;;;19.00;99.90;;;;;;5029405;28;20158;-34
2022/08/16 00:17:46;;;;;;;17.30;15.60;;;19.00;99.90;;;;;;5029464;28;20410;-34
2022/08/16 00:20:12;;;;;;;16.67;14.57;;;19.00;99.90;;;;;;5029202;28;20048;-34
2022/08/16 00:22:40;;;;;;;17.40;15.18;;;19.10;99.90;;;;;;5028480;28;20526;-34
2022/08/16 00:25:10;;;;;;;17.48;15.88;;;19.10;99.90;;;;;;5026002;28;20059;-34
2022/08/16 00:27:36;;;;;;;18.30;16.60;;;19.10;99.90;;;;;;5028845;28;20116;-34
2022/08/16 00:30:03;;;;;;;18.80;16.92;;;19.10;99.90;;;;;;5028526;28;20132;-34
2022/08/16 00:32:29;;;;;;;16.23;14.68;;;19.10;99.90;;;;;;5027790;28;20050;-35
2022/08/16 00:34:55;;;;;;;18.45;16.75;;;19.10;99.90;;;;;;5027899;28;20388;-35
2022/08/16 00:37:22;;;;;;;20.17;16.70;;;19.10;99.90;;;;;;5028725;28;20045;-35
2022/08/16 00:39:48;;;;;;;19.50;17.52;;;19.10;99.90;;;;;;5027436;28;20041;-35
2022/08/16 00:42:14;;;;;;;22.48;20.25;;;19.10;99.90;;;;;;5028502;28;20060;-35
2022/08/16 00:44:45;;;;;;;20.70;18.60;;;19.10;99.90;;;;;;5028584;28;20138;-34
2022/08/16 00:47:15;;;;;;;21.60;19.48;;;19.00;99.90;;;;;;5009282;28;20120;-35
2022/08/16 00:49:41;;;;;;;21.30;19.23;;;19.10;99.90;;;;;;5008641;28;20041;-35
2022/08/16 00:52:07;;;;;;;20.70;18.60;;;19.00;99.90;;;;;;5008688;28;20050;-35
2022/08/16 00:54:33;;;;;;;22.92;20.63;;;19.10;99.90;;;;;;5008033;28;20119;-35
2022/08/16 00:57:03;;;;;;;22.15;19.98;;;19.10;99.90;;;;;;5009193;28;20068;-35
2022/08/16 00:59:35;;;;;;;19.73;17.80;;;19.30;99.90;;;;;;5008766;28;20054;-35
2022/08/16 01:02:03;;;;;;;21.55;18.58;;;19.10;99.90;;;;;;5009118;28;20050;-35
2022/08/16 01:04:29;;;;;;;22.38;19.98;;;19.00;99.90;;;;;;5008330;28;20123;-35
2022/08/16 01:06:55;;;;;;;20.00;18.00;;;19.00;99.90;;;;;;5008266;28;20492;-35
2022/08/16 01:09:21;;;;;;;20.10;18.17;;;19.00;99.90;;;;;;5008079;28;20176;-35
2022/08/16 01:11:47;;;;;;;20.35;18.33;;;19.10;99.90;;;;;;5008114;28;20132;-36
2022/08/16 01:14:22;;;;;;;19.92;18.02;;;18.90;99.90;;;;;;5008192;28;20117;-35
2022/08/16 01:16:48;;;;;;;18.88;17.10;;;19.00;99.90;;;;;;5008341;28;20043;-34
2022/08/16 01:19:27;;;;;;;21.73;19.25;;;18.90;99.90;;;;;;5008273;28;20482;-35
2022/08/16 01:22:00;;;;;;;21.75;19.52;;;18.90;99.90;;;;;;5008035;28;20503;-35
2022/08/16 01:24:49;;;;;;;22.73;20.40;;;18.90;99.90;;;;;;5008448;28;20415;-34
2022/08/16 01:27:35;;;;;;;22.85;20.67;;;18.80;99.90;;;;;;5008409;28;20056;-35
2022/08/16 01:30:04;;;;;;;22.40;19.90;;;18.90;99.90;;;;;;5008106;28;20072;-35
2022/08/16 01:32:34;;;;;;;21.80;19.60;;;18.90;99.90;;;;;;5008193;28;20049;-35
2022/08/16 01:35:06;;;;;;;21.60;19.40;;;18.90;99.90;;;;;;5007860;28;20484;-35
2022/08/16 01:37:46;;;;;;;21.88;19.83;;;19.00;99.90;;;;;;5012610;28;20041;-35
2022/08/16 01:40:14;;;;;;;22.23;20.10;;;19.00;99.90;;;;;;5027497;28;20116;-35
2022/08/16 01:42:40;;;;;;;23.58;20.30;;;19.00;99.90;;;;;;5027684;28;20049;-35
2022/08/16 01:45:06;;;;;;;21.38;19.30;;;19.00;99.90;;;;;;5027477;28;20049;-35
2022/08/16 01:47:35;;;;;;;21.38;19.23;;;19.10;99.90;;;;;;5027262;28;20396;-34
2022/08/16 01:50:03;;;;;;;19.90;17.88;;;19.10;99.90;;;;;;5027089;28;20045;-35
2022/08/16 01:52:29;;;;;;;23.23;20.17;;;19.10;99.90;;;;;;5027435;28;20046;-35
2022/08/16 01:54:55;;;;;;;21.23;19.15;;;19.10;99.90;;;;;;5027365;28;20431;-34
2022/08/16 01:57:21;;;;;;;20.73;18.73;;;19.10;99.90;;;;;;5027726;28;20084;-35
2022/08/16 01:59:47;;;;;;;22.77;20.40;;;19.20;99.90;;;;;;5027510;28;20049;-35
2022/08/16 02:02:13;;;;;;;22.80;19.88;;;19.10;99.90;;;;;;5027866;28;20124;-35
2022/08/16 02:04:38;;;;;;;22.65;20.50;;;19.10;99.90;;;;;;5027125;28;20057;-34
2022/08/16 02:07:07;;;;;;;23.65;21.17;;;19.20;99.90;;;;;;5026918;28;20091;-36
2022/08/16 02:09:36;;;;;;;23.60;21.45;;;19.20;99.90;;;;;;5027091;28;20117;-34
2022/08/16 02:12:03;;;;;;;24.23;21.30;;;19.20;99.90;;;;;;5026822;28;20054;-35
2022/08/16 02:14:29;;;;;;;22.95;20.67;;;19.20;99.90;;;;;;5027041;28;20040;-34
2022/08/16 02:17:03;;;;;;;23.33;20.95;;;19.20;99.90;;;;;;5026764;28;20119;-34
2022/08/16 02:19:31;;;;;;;23.90;21.63;;;19.20;99.90;;;;;;5026566;28;20538;-35
2022/08/16 02:21:58;;;;;;;24.08;21.77;;;19.30;99.90;;;;;;5026746;28;20045;-35
2022/08/16 02:24:24;;;;;;;24.42;21.00;;;19.20;99.90;;;;;;5026884;28;20107;-34
2022/08/16 02:26:50;;;;;;;22.90;20.60;;;19.20;99.90;;;;;;5026496;28;20041;-35
2022/08/16 02:29:17;;;;;;;22.98;20.67;;;19.20;99.90;;;;;;5026753;28;20049;-34
2022/08/16 02:31:45;;;;;;;22.98;20.75;;;19.20;99.90;;;;;;5026809;28;20667;-35
2022/08/16 02:34:11;;;;;;;22.52;20.10;;;19.40;99.90;;;;;;5026561;28;20715;-34
2022/08/16 02:36:37;;;;;;;22.25;19.60;;;19.10;99.90;;;;;;5026828;28;20037;-35
2022/08/16 02:39:05;;;;;;;24.13;21.00;;;19.00;99.90;;;;;;5026341;28;20478;-35
2022/08/16 02:41:31;;;;;;;23.08;20.38;;;18.90;99.90;;;;;;5026268;28;20049;-34
2022/08/16 02:43:58;;;;;;;22.70;20.40;;;19.40;99.90;;;;;;5027057;28;20071;-35
2022/08/16 02:46:25;;;;;;;23.73;20.27;;;18.80;99.90;;;;;;5026756;28;20049;-35
2022/08/16 02:48:50;;;;;;;22.08;20.13;;;18.80;99.90;;;;;;5026399;28;20545;-35
2022/08/16 02:51:16;;;;;;;23.58;20.98;;;18.70;99.90;;;;;;5026220;28;20072;-38
2022/08/16 02:53:46;;;;;;;22.80;20.70;;;18.70;99.90;;;;;;5026273;28;20080;-34
2022/08/16 02:56:15;;;;;;;24.63;20.98;;;18.70;99.90;;;;;;5025612;28;20048;-35
2022/08/16 02:58:41;;;;;;;23.00;20.73;;;18.60;99.90;;;;;;5025917;28;20048;-35
2022/08/16 03:01:08;;;;;;;24.25;21.27;;;18.50;99.90;;;;;;5025798;28;20195;-35
2022/08/16 03:03:35;;;;;;;24.65;22.15;;;18.50;99.90;;;;;;5026461;28;20060;-34
2022/08/16 03:06:01;;;;;;;23.85;21.48;;;18.40;99.90;;;;;;5026028;28;20372;-35
2022/08/16 03:08:27;;;;;;;25.20;22.83;;;18.40;99.90;;;;;;5025604;28;20518;-34
2022/08/16 03:10:52;;;;;;;25.90;23.48;;;18.40;99.90;;;;;;5007535;28;20139;-34
2022/08/16 03:13:19;;;;;;;26.10;23.52;;;18.40;99.90;;;;;;5025620;28;20042;-34
2022/08/16 03:15:46;;;;;;;26.88;24.45;;;18.40;99.90;;;;;;5025977;28;20134;-34
2022/08/16 03:18:12;;;;;;;25.65;22.92;;;18.40;99.90;;;;;;5025213;28;20495;-34
2022/08/16 03:20:38;;;;;;;24.60;21.98;;;18.50;99.90;;;;;;5026060;28;20391;-35
2022/08/16 03:23:05;;;;;;;24.25;21.70;;;18.40;99.90;;;;;;5026051;28;20038;-34
2022/08/16 03:25:32;;;;;;;24.52;22.15;;;17.00;99.90;;;;;;5025683;28;20041;-35
2022/08/16 03:27:58;;;;;;;22.20;20.00;;;18.40;99.90;;;;;;5025816;28;20376;-35
2022/08/16 03:30:28;;;;;;;22.77;20.58;;;18.50;99.90;;;;;;5025386;28;20487;-35
2022/08/16 03:32:54;;;;;;;22.63;19.70;;;18.40;99.90;;;;;;5025757;28;20041;-35
2022/08/16 03:35:24;;;;;;;23.35;20.95;;;18.30;99.90;;;;;;5025815;28;20056;-35
2022/08/16 03:37:55;;;;;;;21.67;19.48;;;18.30;99.90;;;;;;5026155;28;20053;-35
2022/08/16 03:40:21;;;;;;;21.90;19.85;;;18.20;99.90;;;;;;5026327;28;20482;-35
2022/08/16 03:42:46;;;;;;;23.88;21.58;;;18.20;99.90;;;;;;5026205;28;20569;-34
2022/08/16 03:45:13;;;;;;;24.67;21.92;;;18.20;99.90;;;;;;5026219;28;20045;-34
2022/08/16 03:47:39;;;;;;;24.10;21.77;;;18.20;99.90;;;;;;5025916;28;20049;-35
2022/08/16 03:50:06;;;;;;;24.02;21.58;;;18.40;99.90;;;;;;5025957;28;20049;-35
2022/08/16 03:52:32;;;;;;;27.10;24.60;;;18.20;99.90;;;;;;5007873;28;20490;-35
2022/08/16 03:55:00;;;;;;;26.02;23.45;;;18.50;99.90;;;;;;5026203;28;20050;-34
2022/08/16 03:57:28;;;;;;;27.83;24.63;;;18.20;99.90;;;;;;5025668;28;20081;-35
2022/08/16 03:59:54;;;;;;;27.13;24.52;;;18.30;99.90;;;;;;5025939;28;20033;-34
2022/08/16 04:02:20;;;;;;;31.33;25.88;;;17.80;99.90;;;;;;5026014;28;20072;-34
2022/08/16 04:04:45;;;;;;;32.60;27.92;;;17.90;99.90;;;;;;5025951;28;20048;-35
2022/08/16 04:07:11;;;;;;;25.80;23.10;;;17.70;99.90;;;;;;5025574;28;20406;-34
2022/08/16 04:09:37;;;;;;;27.02;24.23;;;17.70;99.90;;;;;;5007791;28;20065;-34
2022/08/16 04:12:04;;;;;;;27.52;24.83;;;17.70;99.90;;;;;;5025952;28;20060;-34
2022/08/16 04:14:29;;;;;;;24.17;21.85;;;17.70;99.90;;;;;;5026049;28;20513;-34
2022/08/16 04:16:55;;;;;;;24.55;22.27;;;17.70;99.90;;;;;;5025800;28;20037;-34
2022/08/16 04:19:23;;;;;;;25.52;23.02;;;18.10;99.90;;;;;;5025329;28;20474;-34
2022/08/16 04:21:49;;;;;;;26.45;23.80;;;17.80;99.90;;;;;;5025349;28;20080;-34
2022/08/16 04:24:15;;;;;;;26.45;23.80;;;17.80;99.90;;;;;;5025230;28;20085;-34
2022/08/16 04:26:40;;;;;;;28.08;25.08;;;17.80;99.90;;;;;;5025343;28;20483;-34
2022/08/16 04:29:06;;;;;;;27.83;25.02;;;17.80;99.90;;;;;;5028101;28;20073;-34
2022/08/16 04:31:32;;;;;;;27.92;25.13;;;17.80;99.90;;;;;;5028779;28;20056;-35
2022/08/16 04:33:58;;;;;;;29.63;26.77;;;17.80;99.90;;;;;;5029153;28;20048;-35
2022/08/16 04:36:26;;;;;;;28.55;25.75;;;17.80;99.90;;;;;;5029296;28;20045;-34
2022/08/16 04:38:53;;;;;;;28.70;25.77;;;17.80;99.90;;;;;;5029471;28;20038;-34
2022/08/16 04:41:20;;;;;;;33.13;29.55;;;18.20;99.90;;;;;;5029166;28;20072;-34
2022/08/16 04:43:45;;;;;;;32.30;28.88;;;17.80;99.90;;;;;;5029306;28;20051;-35
2022/08/16 04:46:13;;;;;;;33.40;29.98;;;17.80;99.90;;;;;;5028889;28;20501;-34
2022/08/16 04:48:40;;;;;;;33.20;29.73;;;17.80;99.90;;;;;;5028109;28;20065;-34
2022/08/16 04:51:07;;;;;;;32.50;29.33;;;17.80;99.90;;;;;;5028606;28;20084;-34
2022/08/16 04:53:32;;;;;;;32.80;29.42;;;17.80;99.90;;;;;;5028421;28;20511;-34
2022/08/16 04:55:59;;;;;;;32.70;29.58;;;17.80;99.90;;;;;;5028510;28;20121;-34
2022/08/16 04:58:25;;;;;;;34.60;30.80;;;17.90;99.90;;;;;;5028717;28;20120;-34
2022/08/16 05:00:51;;;;;;;33.40;29.83;;;17.70;99.90;;;;;;5028747;28;20131;-34
2022/08/16 05:03:17;;;;;;;34.70;31.23;;;17.80;99.90;;;;;;5028859;28;20045;-35
2022/08/16 05:05:42;;;;;;;31.60;28.40;;;17.70;99.90;;;;;;5027813;28;20458;-34
2022/08/16 05:08:09;;;;;;;33.25;29.83;;;17.80;99.90;;;;;;5028475;28;20128;-34
2022/08/16 05:10:35;;;;;;;32.55;28.63;;;17.70;99.90;;;;;;5027600;28;20456;-35
2022/08/16 05:13:03;;;;;;;30.83;27.60;;;17.70;99.90;;;;;;5027955;28;20149;-34
2022/08/16 05:15:28;;;;;;;31.70;28.73;;;17.70;99.90;;;;;;5027665;28;20037;-35
2022/08/16 05:17:55;;;;;;;33.63;28.45;;;17.70;99.90;;;;;;5028104;28;20092;-34
2022/08/16 05:20:21;;;;;;;31.40;28.23;;;17.70;99.90;;;;;;5028266;28;20589;-35
2022/08/16 05:22:47;;;;;;;31.55;28.35;;;17.60;99.90;;;;;;5028518;28;20081;-34
2022/08/16 05:25:14;;;;;;;30.88;26.90;;;17.70;99.90;;;;;;5028327;28;20124;-34
2022/08/16 05:27:41;;;;;;;30.45;27.25;;;18.20;99.90;;;;;;5010149;28;20053;-34
2022/08/16 05:30:11;;;;;;;29.42;26.17;;;17.80;99.90;;;;;;5028268;28;20033;-34
2022/08/16 05:32:36;;;;;;;29.33;25.77;;;18.00;99.90;;;;;;5027534;28;20448;-35
2022/08/16 05:35:06;;;;;;;29.02;26.00;;;18.20;99.90;;;;;;5027937;28;20507;-34
2022/08/16 05:37:33;;;;;;;27.98;25.15;;;18.40;99.90;;;;;;5027060;28;20513;-35
2022/08/16 05:39:59;;;;;;;27.55;24.65;;;18.60;99.90;;;;;;5026322;28;20041;-47
2022/08/16 05:42:25;;;;;;;27.80;25.02;;;19.40;99.90;;;;;;5026902;28;20488;-45
2022/08/16 05:44:51;;;;;;;25.05;22.70;;;19.80;99.90;;;;;;5027311;28;20045;-47
2022/08/16 05:47:16;;;;;;;26.73;24.00;;;20.20;99.90;;;;;;5027137;28;20041;-46
2022/08/16 05:49:42;;;;;;;25.92;23.42;;;21.30;99.90;;;;;;5026773;28;20041;-46
2022/08/16 05:52:10;;;;;;;25.52;22.67;;;22.10;99.90;;;;;;5027214;28;20034;-47
2022/08/16 05:54:35;;;;;;;24.67;21.80;;;21.60;99.90;;;;;;5027287;28;20052;-47
2022/08/16 05:57:01;;;;;;;26.50;23.92;;;21.20;99.90;;;;;;5027560;28;20038;-36
2022/08/16 05:59:27;;;;;;;24.45;22.02;;;20.90;99.90;;;;;;5027386;28;20034;-35
2022/08/16 06:01:53;;;;;;;23.75;21.40;;;21.20;99.90;;;;;;5027434;28;20572;-35
2022/08/16 06:04:19;;;;;;;24.15;21.77;;;21.80;99.90;;;;;;5027203;28;20041;-35
2022/08/16 06:06:45;;;;;;;23.48;21.33;;;21.90;99.90;;;;;;5026686;28;20052;-35
2022/08/16 06:09:12;;;;;;;21.60;19.52;;;23.40;99.90;;;;;;5026425;28;20045;-35
2022/08/16 06:11:38;;;;;;;20.60;18.55;;;24.10;99.90;;;;;;5025726;28;20045;-35
2022/08/16 06:14:05;;;;;;;18.52;16.63;;;24.60;99.90;;;;;;5026342;28;20045;-37
2022/08/16 06:16:31;;;;;;;20.95;18.20;;;24.30;99.90;;;;;;5026088;28;20048;-35
2022/08/16 06:18:57;;;;;;;18.50;16.70;;;24.50;99.90;;;;;;5027050;28;20399;-35
2022/08/16 06:21:23;;;;;;;20.20;18.30;;;24.80;99.90;;;;;;5027672;28;20152;-35
2022/08/16 06:23:49;;;;;;;25.15;18.45;;;26.00;97.90;;;;;;5027784;28;20186;-35
2022/08/16 06:26:14;;;;;;;20.67;17.27;;;26.80;95.30;;;;;;5028060;28;20635;-35
2022/08/16 06:28:41;;;;;;;19.00;16.90;;;26.00;95.30;;;;;;5027171;28;20107;-35
2022/08/16 06:31:09;;;;;;;16.63;15.00;;;25.50;96.50;;;;;;5026184;28;20395;-35
2022/08/16 06:33:34;;;;;;;16.98;15.07;;;25.50;97.00;;;;;;5026400;28;20052;-35
2022/08/16 06:36:00;;;;;;;17.20;14.27;;;25.70;96.40;;;;;;5025917;28;20041;-35
2022/08/16 06:38:26;;;;;;;17.85;14.77;;;25.70;97.00;;;;;;5023777;28;20045;-35
2022/08/16 06:40:52;;;;;;;15.15;13.65;;;25.60;97.20;;;;;;5025922;28;20120;-35
2022/08/16 06:43:19;;;;;;;15.73;13.45;;;25.70;97.00;;;;;;5025945;28;20124;-35
2022/08/16 06:45:46;;;;;;;15.23;13.63;;;25.80;96.80;;;;;;5016379;28;20041;-35
2022/08/16 06:48:12;;;;;;;14.35;12.85;;;26.80;95.90;;;;;;5023825;28;20068;-35
2022/08/16 06:50:38;;;;;;;15.18;13.60;;;27.80;96.60;;;;;;5025686;28;20069;-35
2022/08/16 06:53:04;;;;;;;13.27;12.07;;;28.20;93.30;;;;;;5025475;28;20037;-35
2022/08/16 06:55:33;;;;;;;12.70;10.90;;;28.40;93.50;;;;;;5026300;28;20047;-36
2022/08/16 06:57:59;;;;;;;13.85;11.65;;;29.10;92.70;;;;;;5025527;28;20037;-35
2022/08/16 07:00:26;;;;;;;11.18;10.02;;;30.40;87.60;;;;;;5025085;28;20044;-36
2022/08/16 07:02:52;;;;;;;9.15;8.13;;;30.70;85.10;;;;;;5007262;28;20475;-36
2022/08/16 07:05:18;;;;;;;10.05;7.88;;;30.00;84.80;;;;;;5025328;28;20128;-35
2022/08/16 07:07:48;;;;;;;8.15;7.43;;;30.50;82.30;;;;;;5025271;28;20068;-36
2022/08/16 07:10:16;;;;;;;8.68;7.80;;;31.20;78.80;;;;;;5024961;28;20053;-35
2022/08/16 07:12:42;;;;;;;9.82;7.18;;;31.40;76.30;;;;;;5025520;28;20508;-49
2022/08/16 07:15:08;;;;;;;8.13;6.43;;;31.60;74.20;;;;;;5025350;28;20591;-47
2022/08/16 07:17:35;;;;;;;9.18;8.25;;;30.30;75.10;;;;;;5025432;28;20076;-50
2022/08/16 07:20:02;;;;;;;8.32;7.13;;;29.30;77.50;;;;;;5025366;28;20049;-46
2022/08/16 07:22:28;;;;;;;10.38;7.93;;;28.70;79.70;;;;;;5025634;28;20565;-45
2022/08/16 07:24:54;;;;;;;7.97;6.70;;;29.10;79.60;;;;;;5025448;28;20041;-47
2022/08/16 07:27:20;;;;;;;11.25;6.80;;;29.40;77.60;;;;;;5025579;28;20045;-46
2022/08/16 07:29:46;;;;;;;9.48;7.72;;;28.60;78.50;;;;;;5025423;28;20721;-46
2022/08/16 07:32:12;;;;;;;8.55;7.72;;;28.10;79.70;;;;;;5024629;28;20045;-46
2022/08/16 07:34:37;;;;;;;11.23;6.75;;;27.60;80.90;;;;;;5025817;28;20037;-45
2022/08/16 07:37:07;;;;;;;7.75;6.38;;;27.30;81.70;;;;;;5025311;28;20368;-49
2022/08/16 07:39:33;;;;;;;10.07;8.35;;;26.90;82.60;;;;;;5025748;28;20037;-46
2022/08/16 07:41:59;;;;;;;8.32;6.78;;;26.70;83.30;;;;;;5025570;28;20487;-46
2022/08/16 07:44:25;;;;;;;9.35;8.38;;;26.50;84.30;;;;;;5025130;28;20049;-46
2022/08/16 07:46:51;;;;;;;13.23;9.07;;;26.40;86.20;;;;;;5024724;28;20042;-48
2022/08/16 07:49:16;;;;;;;11.27;9.60;;;26.40;86.70;;;;;;5025260;28;20049;-46
2022/08/16 07:51:42;;;;;;;12.35;8.60;;;26.60;86.80;;;;;;5025357;28;20135;-47
2022/08/16 07:54:09;;;;;;;13.55;9.45;;;26.80;87.00;;;;;;5025166;28;20069;-46
2022/08/16 07:56:36;;;;;;;10.15;8.93;;;27.00;86.00;;;;;;5024876;28;20045;-46
2022/08/16 07:59:01;;;;;;;11.65;9.20;;;27.50;84.80;;;;;;5025060;28;20037;-46
2022/08/16 08:01:28;;;;;;;12.80;9.23;;;27.80;84.80;;;;;;5025457;28;20849;-47
2022/08/16 08:03:55;;;;;;;11.93;9.63;;;27.80;84.90;;;;;;5028141;28;20100;-47
2022/08/16 08:06:23;;;;;;;9.65;8.50;;;27.80;84.60;;;;;;5028576;28;20407;-49
2022/08/16 08:08:49;;;;;;;9.32;8.18;;;28.10;83.90;;;;;;5026474;28;20487;-45
2022/08/16 08:11:15;;;;;;;10.68;8.05;;;28.40;84.00;;;;;;5028492;28;20041;-46
2022/08/16 08:13:41;;;;;;;8.27;7.55;;;28.80;82.60;;;;;;5028923;28;20037;-46
2022/08/16 08:16:08;;;;;;;10.93;8.15;;;29.50;82.40;;;;;;5028682;28;20116;-48
2022/08/16 08:18:35;;;;;;;8.27;7.40;;;31.20;77.40;;;;;;5028436;28;20522;-47
2022/08/16 08:21:01;;;;;;;11.02;7.10;;;32.90;72.20;;;;;;5028264;28;20474;-46
2022/08/16 08:23:27;;;;;;;9.38;7.88;;;34.40;67.70;;;;;;5010049;28;20072;-46
2022/08/16 08:25:53;;;;;;;10.82;6.82;;;35.50;64.00;;;;;;5028555;28;20479;-46
2022/08/16 08:28:19;;;;;;;6.65;5.50;;;36.40;62.20;;;;;;5028053;28;20661;-46
2022/08/16 08:30:45;;;;;;;8.50;5.82;;;37.30;60.30;;;;;;5010075;28;20128;-46
2022/08/16 08:33:11;;;;;;;7.05;5.75;;;38.70;59.00;;;;;;5027880;28;20117;-47
2022/08/16 08:35:37;;;;;;;5.85;5.25;;;38.40;57.00;;;;;;5027986;28;20037;-45
2022/08/16 08:38:07;;;;;;;6.10;5.50;;;38.90;55.20;;;;;;5026634;28;20037;-58
2022/08/16 08:40:34;;;;;;;7.88;5.25;;;39.40;54.70;;;;;;5028266;28;20589;-57
2022/08/16 08:43:01;;;;;;;6.10;5.00;;;40.10;58.80;;;;;;5027598;28;20103;-57
2022/08/16 08:45:29;;;;;;;6.18;4.60;;;40.70;60.50;;;;;;5028660;28;20037;-57
2022/08/16 08:47:55;;;;;;;6.32;4.80;;;41.40;52.60;;;;;;5029125;28;20152;-57
2022/08/16 08:50:22;;;;;;;6.63;4.70;;;42.00;51.40;;;;;;5029385;28;20140;-57
2022/08/16 08:52:50;;;;;;;5.63;4.03;;;42.40;48.80;;;;;;5028638;28;20037;-57
2022/08/16 08:55:21;;;;;;;5.55;4.55;;;43.00;49.00;;;;;;5028849;28;20044;-57
2022/08/16 08:57:47;;;;;;;5.38;4.18;;;43.20;48.40;;;;;;5028597;28;20045;-56
2022/08/16 09:00:16;;;;;;;5.90;5.05;;;43.60;48.60;;;;;;5029546;28;20100;-57
2022/08/16 09:02:42;;;;;;;6.80;4.47;;;44.10;47.10;;;;;;5029903;28;20092;-57
2022/08/16 09:05:09;;;;;;;5.30;3.70;;;44.50;46.60;;;;;;5029161;28;20073;-57
2022/08/16 09:07:37;;;;;;;5.68;3.58;;;44.80;45.40;;;;;;5028695;28;20489;-56
2022/08/16 09:10:05;;;;;;;4.68;3.80;;;45.10;45.00;;;;;;5028097;28;20068;-56
2022/08/16 09:12:31;;;;;;;6.50;4.10;;;45.30;57.20;;;;;;5028737;28;20607;-56
2022/08/16 09:14:57;;;;;;;4.65;3.60;;;45.30;45.10;;;;;;5027741;28;20132;-56
2022/08/16 09:17:23;;;;;;;4.25;3.30;;;45.40;45.10;;;;;;5029117;28;20495;-57
2022/08/16 09:19:50;;;;;;;4.07;3.28;;;45.40;44.40;;;;;;5028956;28;20068;-56
2022/08/16 09:22:17;;;;;;;5.07;3.63;;;45.30;44.10;;;;;;5010762;28;20731;-56
2022/08/16 09:24:43;;;;;;;5.95;3.60;;;45.60;44.10;;;;;;5028848;28;20056;-56
2022/08/16 09:27:09;;;;;;;7.90;3.50;;;45.60;43.70;;;;;;5028485;28;20049;-56
2022/08/16 09:29:35;;;;;;;5.13;3.17;;;46.00;43.70;;;;;;5028553;28;20049;-56
2022/08/16 09:32:00;;;;;;;5.93;3.65;;;46.60;53.70;;;;;;5028255;28;20099;-56
2022/08/16 09:34:26;;;;;;;6.50;4.38;;;46.60;42.60;;;;;;5029613;28;20049;-56
2022/08/16 09:36:54;;;;;;;8.32;4.55;;;46.60;42.30;;;;;;5029638;28;20559;-56
2022/08/16 09:39:20;;;;;;;5.93;3.40;;;46.60;46.10;;;;;;5029308;28;20050;-56
2022/08/16 09:41:50;;;;;;;4.88;3.75;;;46.40;42.80;;;;;;5029076;28;20410;-57
2022/08/16 09:44:22;;;;;;;5.38;3.63;;;46.40;42.60;;;;;;5027899;28;20045;-57
2022/08/16 09:46:48;;;;;;;6.30;4.10;;;46.30;42.90;;;;;;5028365;28;20037;-57
2022/08/16 09:49:14;;;;;;;4.85;3.88;;;46.10;45.90;;;;;;5028339;28;20080;-56
2022/08/16 09:51:40;;;;;;;4.85;4.35;;;46.10;46.40;;;;;;5028483;28;20049;-57
2022/08/16 09:54:05;;;;;;;5.97;4.30;;;45.80;46.50;;;;;;5028516;28;20041;-56
2022/08/16 09:56:34;;;;;;;7.88;4.85;;;45.60;47.90;;;;;;5027833;28;20056;-57
2022/08/16 09:59:03;;;;;;;4.85;4.13;;;45.30;49.10;;;;;;5027456;28;20041;-57
2022/08/16 10:01:30;;;;;;;4.03;3.10;;;45.20;50.30;;;;;;5028109;28;20052;-57
2022/08/16 10:03:56;;;;;;;7.60;4.38;;;44.80;50.00;;;;;;5028405;28;20080;-57
2022/08/16 10:06:24;;;;;;;4.80;4.38;;;44.40;48.80;;;;;;5028329;28;20479;-56
2022/08/16 10:08:50;;;;;;;10.30;4.20;;;44.10;48.20;;;;;;5028053;28;20128;-56
2022/08/16 10:14:01;;;;;;;6.18;3.72;;;43.80;47.30;;;;;;5028149;28;20115;-56
2022/08/16 10:16:27;;;;;;;6.47;5.03;;;43.70;47.00;;;;;;5028164;28;20041;-56
2022/08/16 10:18:53;;;;;;;4.57;4.00;;;43.50;46.20;;;;;;5010335;28;20045;-56
2022/08/16 10:21:18;;;;;;;6.03;3.85;;;43.40;46.20;;;;;;5009673;28;20060;-56
2022/08/16 10:23:45;;;;;;;6.97;3.90;;;43.20;46.00;;;;;;5028062;28;20053;-57
2022/08/16 10:26:11;;;;;;;5.90;3.42;;;43.00;45.00;;;;;;5027428;28;20859;-56
2022/08/16 10:28:37;;;;;;;5.45;2.67;;;42.90;46.00;;;;;;5027549;28;20051;-56
2022/08/16 10:31:04;;;;;;;7.43;3.70;;;42.60;47.40;;;;;;5027059;28;20128;-56
2022/08/16 10:33:32;;;;;;;4.78;3.20;;;42.10;44.20;;;;;;5027711;28;20045;-56
2022/08/16 10:35:59;;;;;;;3.70;2.67;;;41.40;49.00;;;;;;5027626;28;20088;-56
2022/08/16 10:38:25;;;;;;;3.90;2.90;;;40.90;45.50;;;;;;5027148;28;20478;-56
2022/08/16 10:40:51;;;;;;;4.38;2.00;;;40.60;45.30;;;;;;5027241;28;20148;-56
2022/08/16 10:43:17;;;;;;;3.10;1.60;;;40.90;45.20;;;;;;5027168;28;20132;-56
2022/08/16 10:45:43;;;;;;;3.35;1.77;;;40.90;45.60;;;;;;5027849;28;20553;-55
2022/08/16 10:48:10;;;;;;;8.48;2.03;;;40.60;45.30;;;;;;5027700;28;20047;-56
2022/08/16 10:50:36;;;;;;;2.92;1.92;;;40.40;44.20;;;;;;5027453;28;20047;-56
2022/08/16 10:53:06;;;;;;;8.18;2.58;;;39.80;44.80;;;;;;5027023;28;20051;-56
2022/08/16 10:55:36;;;;;;;4.40;2.13;;;39.10;45.60;;;;;;5027604;28;20080;-55
2022/08/16 10:58:08;;;;;;;8.57;2.03;;;38.10;46.00;;;;;;5027501;28;20041;-55
2022/08/16 11:00:38;;;;;;;5.63;1.95;;;37.30;47.10;;;;;;5027021;28;20034;-55
2022/08/16 11:03:04;;;;;;;5.32;1.73;;;36.60;48.20;;;;;;5027645;28;20049;-56
2022/08/16 11:05:32;;;;;;;3.20;2.08;;;35.90;49.30;;;;;;5026817;28;20454;-55
2022/08/16 11:07:59;;;;;;;4.80;2.08;;;35.40;49.70;;;;;;5027017;28;20530;-55
2022/08/16 11:10:29;;;;;;;3.58;2.20;;;34.90;50.40;;;;;;5026034;28;20539;-55
2022/08/16 11:12:55;;;;;;;9.48;2.70;;;34.60;51.30;;;;;;5008710;28;20045;-55
2022/08/16 11:15:21;;;;;;;4.55;2.40;;;34.20;52.20;;;;;;5026920;28;20099;-55
2022/08/16 11:17:49;;;;;;;4.18;2.40;;;34.00;52.00;;;;;;5027220;28;20037;-55
2022/08/16 11:20:16;;;;;;;3.38;2.10;;;33.80;52.60;;;;;;5026610;28;20541;-55
2022/08/16 11:22:43;;;;;;;4.72;2.58;;;33.50;53.50;;;;;;5009452;28;20068;-55
2022/08/16 11:25:10;;;;;;;3.13;2.00;;;33.10;54.50;;;;;;5026728;28;20047;-54
2022/08/16 11:27:36;;;;;;;3.97;2.70;;;32.90;55.60;;;;;;5027336;28;20069;-55
2022/08/16 11:30:05;;;;;;;5.18;2.05;;;32.60;55.60;;;;;;5008992;28;20081;-55
2022/08/16 11:32:30;;;;;;;4.43;2.17;;;32.40;55.60;;;;;;5027196;28;20091;-55
2022/08/16 11:34:56;;;;;;;4.60;2.47;;;32.30;56.10;;;;;;5009120;28;20507;-55
2022/08/16 11:37:23;;;;;;;3.00;2.20;;;32.20;55.70;;;;;;5027265;28;20044;-55
2022/08/16 11:39:49;;;;;;;3.83;2.17;;;32.10;53.20;;;;;;5033070;28;20391;-55
2022/08/16 11:42:14;;;;;;;5.68;2.42;;;32.00;54.90;;;;;;5032530;28;20045;-55
2022/08/16 11:44:40;;;;;;;4.03;2.13;;;31.90;55.90;;;;;;5033047;28;20057;-55
2022/08/16 11:47:06;;;;;;;5.15;1.90;;;31.80;57.50;;;;;;5034046;28;20103;-55
2022/08/16 11:49:31;;;;;;;2.53;1.63;;;31.70;57.30;;;;;;5033304;28;20045;-55
2022/08/16 11:51:57;;;;;;;3.78;2.10;;;31.60;57.30;;;;;;5033066;28;20128;-55
2022/08/16 11:54:23;;;;;;;2.70;1.60;;;31.50;56.80;;;;;;5032594;28;20160;-55
2022/08/16 11:56:50;;;;;;;2.55;1.38;;;31.30;56.50;;;;;;5033077;28;20125;-54
2022/08/16 11:59:17;;;;;;;4.07;1.55;;;31.20;56.40;;;;;;5033170;28;20117;-55
2022/08/16 12:01:44;;;;;;;3.92;1.65;;;31.20;56.70;;;;;;5032607;28;20449;-55
2022/08/16 12:04:10;;;;;;;3.15;1.80;;;31.10;57.30;;;;;;5032836;28;20048;-55
2022/08/16 12:06:36;;;;;;;3.63;1.88;;;31.20;58.60;;;;;;5032734;28;20052;-54
2022/08/16 12:09:04;;;;;;;6.07;1.60;;;31.00;57.30;;;;;;5032856;28;20045;-54
2022/08/16 12:11:30;;;;;;;3.00;2.10;;;30.90;57.70;;;;;;5032506;28;20089;-55
2022/08/16 12:13:56;;;;;;;4.07;1.60;;;30.80;57.90;;;;;;5032786;28;20099;-55
2022/08/16 12:16:21;;;;;;;2.80;1.30;;;30.70;58.60;;;;;;5032427;28;20434;-55
2022/08/16 12:18:48;;;;;;;2.17;1.17;;;30.70;58.90;;;;;;5032796;28;20080;-54
2022/08/16 12:21:15;;;;;;;3.13;1.65;;;30.60;58.70;;;;;;5032924;28;20491;-55
2022/08/16 12:23:40;;;;;;;4.35;1.27;;;30.50;58.90;;;;;;5033089;28;20624;-54
2022/08/16 12:26:06;;;;;;;2.13;1.50;;;30.50;57.60;;;;;;5033417;28;20076;-54
2022/08/16 12:28:33;;;;;;;4.40;1.40;;;30.50;58.00;;;;;;5032891;28;20070;-54
2022/08/16 12:30:59;;;;;;;6.25;1.60;;;30.50;58.80;;;;;;5032143;28;20045;-55
2022/08/16 12:33:24;;;;;;;3.08;1.40;;;30.50;59.40;;;;;;5032314;28;20595;-55
2022/08/16 12:35:50;;;;;;;4.35;1.85;;;30.50;58.00;;;;;;5032379;28;20132;-55